sensor_id;sensor_type;location;lat;lon;timestamp;temperature;humidity
40932;DHT22;36257;46.052;12.540;2022-07-05T00:01:42;23.30;77.70
40932;DHT22;36257;46.052;12.540;2022-07-05T00:04:08;23.30;76.20
40932;DHT22;36257;46.052;12.540;2022-07-05T00:06:34;23.40;76.90
40932;DHT22;36257;46.052;12.540;2022-07-05T00:08:59;23.40;76.50
40932;DHT22;36257;46.052;12.540;2022-07-05T00:11:25;23.50;75.90
40932;DHT22;36257;46.052;12.540;2022-07-05T00:13:51;23.50;77.00
40932;DHT22;36257;46.052;12.540;2022-07-05T00:16:16;23.50;78.20
40932;DHT22;36257;46.052;12.540;2022-07-05T00:18:42;23.40;81.40
40932;DHT22;36257;46.052;12.540;2022-07-05T00:21:08;23.20;84.50
40932;DHT22;36257;46.052;12.540;2022-07-05T00:23:34;22.80;85.90
40932;DHT22;36257;46.052;12.540;2022-07-05T00:25:59;22.60;87.70
40932;DHT22;36257;46.052;12.540;2022-07-05T00:28:25;22.50;88.90
40932;DHT22;36257;46.052;12.540;2022-07-05T00:30:51;22.40;89.00
40932;DHT22;36257;46.052;12.540;2022-07-05T00:33:19;22.30;89.40
40932;DHT22;36257;46.052;12.540;2022-07-05T00:35:44;22.30;88.00
40932;DHT22;36257;46.052;12.540;2022-07-05T00:38:19;22.20;86.70
40932;DHT22;36257;46.052;12.540;2022-07-05T00:40:49;22.20;85.70
40932;DHT22;36257;46.052;12.540;2022-07-05T00:43:17;22.30;86.00
40932;DHT22;36257;46.052;12.540;2022-07-05T00:45:43;22.30;85.00
40932;DHT22;36257;46.052;12.540;2022-07-05T00:48:08;22.40;84.90
40932;DHT22;36257;46.052;12.540;2022-07-05T00:50:36;22.50;85.70
40932;DHT22;36257;46.052;12.540;2022-07-05T00:53:02;22.40;86.50
40932;DHT22;36257;46.052;12.540;2022-07-05T00:55:28;22.40;86.30
40932;DHT22;36257;46.052;12.540;2022-07-05T00:57:54;22.30;85.90
40932;DHT22;36257;46.052;12.540;2022-07-05T01:00:20;22.30;85.80
40932;DHT22;36257;46.052;12.540;2022-07-05T01:02:45;22.40;85.50
40932;DHT22;36257;46.052;12.540;2022-07-05T01:05:11;22.40;86.30
40932;DHT22;36257;46.052;12.540;2022-07-05T01:07:37;22.50;86.30
40932;DHT22;36257;46.052;12.540;2022-07-05T01:10:03;22.50;85.40
40932;DHT22;36257;46.052;12.540;2022-07-05T01:12:29;22.50;85.20
40932;DHT22;36257;46.052;12.540;2022-07-05T01:14:55;22.50;84.20
40932;DHT22;36257;46.052;12.540;2022-07-05T01:17:22;22.50;84.20
40932;DHT22;36257;46.052;12.540;2022-07-05T01:19:48;22.60;84.50
40932;DHT22;36257;46.052;12.540;2022-07-05T01:22:19;22.50;85.70
40932;DHT22;36257;46.052;12.540;2022-07-05T01:24:50;22.50;86.50
40932;DHT22;36257;46.052;12.540;2022-07-05T01:27:17;22.50;86.10
40932;DHT22;36257;46.052;12.540;2022-07-05T01:29:43;22.40;86.50
40932;DHT22;36257;46.052;12.540;2022-07-05T01:32:09;22.50;86.90
40932;DHT22;36257;46.052;12.540;2022-07-05T01:34:39;22.40;87.60
40932;DHT22;36257;46.052;12.540;2022-07-05T01:37:05;22.40;88.10
40932;DHT22;36257;46.052;12.540;2022-07-05T01:39:32;22.40;87.90
40932;DHT22;36257;46.052;12.540;2022-07-05T01:41:57;22.40;88.30
40932;DHT22;36257;46.052;12.540;2022-07-05T01:44:23;22.40;88.60
40932;DHT22;36257;46.052;12.540;2022-07-05T01:46:53;22.40;88.50
40932;DHT22;36257;46.052;12.540;2022-07-05T01:49:22;22.40;89.50
40932;DHT22;36257;46.052;12.540;2022-07-05T01:52:01;22.30;89.80
40932;DHT22;36257;46.052;12.540;2022-07-05T01:54:28;22.20;89.30
40932;DHT22;36257;46.052;12.540;2022-07-05T01:56:54;22.20;88.60
40932;DHT22;36257;46.052;12.540;2022-07-05T01:59:19;22.20;88.40
40932;DHT22;36257;46.052;12.540;2022-07-05T02:01:45;22.30;88.10
40932;DHT22;36257;46.052;12.540;2022-07-05T02:04:11;22.40;87.80
40932;DHT22;36257;46.052;12.540;2022-07-05T02:06:39;22.50;87.10
40932;DHT22;36257;46.052;12.540;2022-07-05T02:09:06;22.50;87.00
40932;DHT22;36257;46.052;12.540;2022-07-05T02:11:32;22.60;86.70
40932;DHT22;36257;46.052;12.540;2022-07-05T02:13:58;22.60;86.90
40932;DHT22;36257;46.052;12.540;2022-07-05T02:16:25;22.60;86.90
40932;DHT22;36257;46.052;12.540;2022-07-05T02:18:51;22.60;87.40
40932;DHT22;36257;46.052;12.540;2022-07-05T02:21:16;22.60;88.20
40932;DHT22;36257;46.052;12.540;2022-07-05T02:23:42;22.50;87.70
40932;DHT22;36257;46.052;12.540;2022-07-05T02:26:08;22.40;87.50
40932;DHT22;36257;46.052;12.540;2022-07-05T02:28:34;22.30;85.90
40932;DHT22;36257;46.052;12.540;2022-07-05T02:30:59;22.30;85.30
40932;DHT22;36257;46.052;12.540;2022-07-05T02:33:25;22.20;84.60
40932;DHT22;36257;46.052;12.540;2022-07-05T02:35:51;22.30;84.30
40932;DHT22;36257;46.052;12.540;2022-07-05T02:38:16;22.30;85.10
40932;DHT22;36257;46.052;12.540;2022-07-05T02:40:42;22.30;85.30
40932;DHT22;36257;46.052;12.540;2022-07-05T02:43:08;22.30;84.40
40932;DHT22;36257;46.052;12.540;2022-07-05T02:45:33;22.30;85.10
40932;DHT22;36257;46.052;12.540;2022-07-05T02:47:59;22.30;84.80
40932;DHT22;36257;46.052;12.540;2022-07-05T02:50:24;22.30;85.70
40932;DHT22;36257;46.052;12.540;2022-07-05T02:52:51;22.30;85.40
40932;DHT22;36257;46.052;12.540;2022-07-05T02:55:16;22.30;84.70
40932;DHT22;36257;46.052;12.540;2022-07-05T02:57:42;22.30;84.70
40932;DHT22;36257;46.052;12.540;2022-07-05T03:00:08;22.30;85.20
40932;DHT22;36257;46.052;12.540;2022-07-05T03:02:34;22.30;85.10
40932;DHT22;36257;46.052;12.540;2022-07-05T03:05:00;22.20;85.50
40932;DHT22;36257;46.052;12.540;2022-07-05T03:07:25;22.20;86.20
40932;DHT22;36257;46.052;12.540;2022-07-05T03:09:51;22.20;87.30
40932;DHT22;36257;46.052;12.540;2022-07-05T03:12:16;22.20;87.70
40932;DHT22;36257;46.052;12.540;2022-07-05T03:14:45;22.10;88.10
40932;DHT22;36257;46.052;12.540;2022-07-05T03:17:10;22.00;89.50
40932;DHT22;36257;46.052;12.540;2022-07-05T03:19:36;21.80;89.90
40932;DHT22;36257;46.052;12.540;2022-07-05T03:22:03;21.80;89.90
40932;DHT22;36257;46.052;12.540;2022-07-05T03:24:28;21.70;89.80
40932;DHT22;36257;46.052;12.540;2022-07-05T03:26:54;21.60;88.60
40932;DHT22;36257;46.052;12.540;2022-07-05T03:29:22;21.60;88.10
40932;DHT22;36257;46.052;12.540;2022-07-05T03:31:48;21.50;87.80
40932;DHT22;36257;46.052;12.540;2022-07-05T03:34:13;21.60;87.50
40932;DHT22;36257;46.052;12.540;2022-07-05T03:36:39;21.60;87.70
40932;DHT22;36257;46.052;12.540;2022-07-05T03:39:04;21.50;88.40
40932;DHT22;36257;46.052;12.540;2022-07-05T03:41:30;21.40;89.20
40932;DHT22;36257;46.052;12.540;2022-07-05T03:43:56;21.40;89.90
40932;DHT22;36257;46.052;12.540;2022-07-05T03:46:21;21.30;90.30
40932;DHT22;36257;46.052;12.540;2022-07-05T03:48:47;21.20;90.70
40932;DHT22;36257;46.052;12.540;2022-07-05T03:51:13;21.20;90.90
40932;DHT22;36257;46.052;12.540;2022-07-05T03:53:39;21.20;89.80
40932;DHT22;36257;46.052;12.540;2022-07-05T03:56:05;21.20;89.20
40932;DHT22;36257;46.052;12.540;2022-07-05T03:58:31;21.20;89.50
40932;DHT22;36257;46.052;12.540;2022-07-05T04:00:57;21.30;89.40
40932;DHT22;36257;46.052;12.540;2022-07-05T04:03:26;21.30;89.20
40932;DHT22;36257;46.052;12.540;2022-07-05T04:05:55;21.40;89.30
40932;DHT22;36257;46.052;12.540;2022-07-05T04:08:20;21.40;89.30
40932;DHT22;36257;46.052;12.540;2022-07-05T04:10:47;21.50;88.80
40932;DHT22;36257;46.052;12.540;2022-07-05T04:13:13;21.40;89.40
40932;DHT22;36257;46.052;12.540;2022-07-05T04:15:38;21.40;89.20
40932;DHT22;36257;46.052;12.540;2022-07-05T04:18:04;21.40;89.10
40932;DHT22;36257;46.052;12.540;2022-07-05T04:20:31;21.50;89.00
40932;DHT22;36257;46.052;12.540;2022-07-05T04:22:57;21.50;89.20
40932;DHT22;36257;46.052;12.540;2022-07-05T04:25:23;21.60;88.70
40932;DHT22;36257;46.052;12.540;2022-07-05T04:27:50;21.60;88.90
40932;DHT22;36257;46.052;12.540;2022-07-05T04:30:19;21.70;88.90
40932;DHT22;36257;46.052;12.540;2022-07-05T04:32:45;21.70;89.00
40932;DHT22;36257;46.052;12.540;2022-07-05T04:35:11;21.80;89.20
40932;DHT22;36257;46.052;12.540;2022-07-05T04:37:37;21.80;89.20
40932;DHT22;36257;46.052;12.540;2022-07-05T04:40:05;21.90;89.70
40932;DHT22;36257;46.052;12.540;2022-07-05T04:42:31;21.90;89.20
40932;DHT22;36257;46.052;12.540;2022-07-05T04:44:57;22.00;88.80
40932;DHT22;36257;46.052;12.540;2022-07-05T04:47:23;22.10;88.60
40932;DHT22;36257;46.052;12.540;2022-07-05T04:49:48;22.20;88.40
40932;DHT22;36257;46.052;12.540;2022-07-05T04:52:14;22.30;87.90
40932;DHT22;36257;46.052;12.540;2022-07-05T04:54:42;22.50;87.70
40932;DHT22;36257;46.052;12.540;2022-07-05T04:57:08;22.60;87.40
40932;DHT22;36257;46.052;12.540;2022-07-05T04:59:34;22.70;87.50
40932;DHT22;36257;46.052;12.540;2022-07-05T05:02:00;22.80;87.10
40932;DHT22;36257;46.052;12.540;2022-07-05T05:04:25;23.00;87.20
40932;DHT22;36257;46.052;12.540;2022-07-05T05:06:51;23.10;86.60
40932;DHT22;36257;46.052;12.540;2022-07-05T05:09:16;23.20;86.00
40932;DHT22;36257;46.052;12.540;2022-07-05T05:11:42;23.30;86.30
40932;DHT22;36257;46.052;12.540;2022-07-05T05:14:08;23.50;85.60
40932;DHT22;36257;46.052;12.540;2022-07-05T05:16:33;23.60;85.20
40932;DHT22;36257;46.052;12.540;2022-07-05T05:18:59;23.70;84.50
40932;DHT22;36257;46.052;12.540;2022-07-05T05:21:25;23.90;83.30
40932;DHT22;36257;46.052;12.540;2022-07-05T05:23:50;24.00;83.10
40932;DHT22;36257;46.052;12.540;2022-07-05T05:26:16;24.20;82.80
40932;DHT22;36257;46.052;12.540;2022-07-05T05:28:41;24.40;82.10
40932;DHT22;36257;46.052;12.540;2022-07-05T05:31:07;24.50;81.90
40932;DHT22;36257;46.052;12.540;2022-07-05T05:33:33;24.70;81.50
40932;DHT22;36257;46.052;12.540;2022-07-05T05:35:59;24.90;80.40
40932;DHT22;36257;46.052;12.540;2022-07-05T05:38:25;25.10;79.30
40932;DHT22;36257;46.052;12.540;2022-07-05T05:40:51;25.30;78.10
40932;DHT22;36257;46.052;12.540;2022-07-05T05:43:16;25.50;78.40
40932;DHT22;36257;46.052;12.540;2022-07-05T05:45:42;25.70;78.50
40932;DHT22;36257;46.052;12.540;2022-07-05T05:48:08;25.90;78.70
40932;DHT22;36257;46.052;12.540;2022-07-05T05:50:37;26.10;77.30
40932;DHT22;36257;46.052;12.540;2022-07-05T05:53:12;26.40;76.70
40932;DHT22;36257;46.052;12.540;2022-07-05T05:55:38;26.60;76.40
40932;DHT22;36257;46.052;12.540;2022-07-05T05:58:19;26.80;75.10
40932;DHT22;36257;46.052;12.540;2022-07-05T06:00:52;27.00;74.70
40932;DHT22;36257;46.052;12.540;2022-07-05T06:03:23;27.10;72.20
40932;DHT22;36257;46.052;12.540;2022-07-05T06:05:49;27.40;71.30
40932;DHT22;36257;46.052;12.540;2022-07-05T06:08:15;27.50;72.00
40932;DHT22;36257;46.052;12.540;2022-07-05T06:10:42;27.70;72.50
40932;DHT22;36257;46.052;12.540;2022-07-05T06:13:13;27.90;70.40
40932;DHT22;36257;46.052;12.540;2022-07-05T06:15:39;28.00;69.70
40932;DHT22;36257;46.052;12.540;2022-07-05T06:18:08;28.20;68.90
40932;DHT22;36257;46.052;12.540;2022-07-05T06:20:35;28.30;70.00
40932;DHT22;36257;46.052;12.540;2022-07-05T06:23:02;28.30;68.70
40932;DHT22;36257;46.052;12.540;2022-07-05T06:25:30;28.40;68.00
40932;DHT22;36257;46.052;12.540;2022-07-05T06:27:58;28.40;68.10
40932;DHT22;36257;46.052;12.540;2022-07-05T06:30:25;28.50;67.40
40932;DHT22;36257;46.052;12.540;2022-07-05T06:32:52;28.60;67.60
40932;DHT22;36257;46.052;12.540;2022-07-05T06:35:18;28.60;65.90
40932;DHT22;36257;46.052;12.540;2022-07-05T06:40:17;28.90;66.50
40932;DHT22;36257;46.052;12.540;2022-07-05T06:42:44;29.00;67.30
40932;DHT22;36257;46.052;12.540;2022-07-05T06:45:10;29.20;64.30
40932;DHT22;36257;46.052;12.540;2022-07-05T06:47:36;29.40;62.60
40932;DHT22;36257;46.052;12.540;2022-07-05T06:50:03;29.50;61.90
40932;DHT22;36257;46.052;12.540;2022-07-05T06:52:29;29.60;62.60
40932;DHT22;36257;46.052;12.540;2022-07-05T06:54:57;29.70;64.10
40932;DHT22;36257;46.052;12.540;2022-07-05T06:57:23;29.80;63.90
40932;DHT22;36257;46.052;12.540;2022-07-05T06:59:49;30.00;63.20
40932;DHT22;36257;46.052;12.540;2022-07-05T07:02:15;29.90;64.60
40932;DHT22;36257;46.052;12.540;2022-07-05T07:04:41;29.80;63.00
40932;DHT22;36257;46.052;12.540;2022-07-05T07:07:07;29.60;63.70
40932;DHT22;36257;46.052;12.540;2022-07-05T07:09:57;29.50;63.80
40932;DHT22;36257;46.052;12.540;2022-07-05T07:12:22;29.60;64.60
40932;DHT22;36257;46.052;12.540;2022-07-05T07:14:48;29.70;64.40
40932;DHT22;36257;46.052;12.540;2022-07-05T07:17:14;29.90;65.40
40932;DHT22;36257;46.052;12.540;2022-07-05T07:19:39;30.10;62.80
40932;DHT22;36257;46.052;12.540;2022-07-05T07:22:05;30.10;64.70
40932;DHT22;36257;46.052;12.540;2022-07-05T07:24:30;30.10;65.60
40932;DHT22;36257;46.052;12.540;2022-07-05T07:26:56;30.10;65.60
40932;DHT22;36257;46.052;12.540;2022-07-05T07:29:28;30.00;64.90
40932;DHT22;36257;46.052;12.540;2022-07-05T07:31:55;29.90;64.70
40932;DHT22;36257;46.052;12.540;2022-07-05T07:34:21;29.90;65.30
40932;DHT22;36257;46.052;12.540;2022-07-05T07:36:47;29.80;67.30
40932;DHT22;36257;46.052;12.540;2022-07-05T07:39:13;29.80;66.10
40932;DHT22;36257;46.052;12.540;2022-07-05T07:41:39;29.90;65.80
40932;DHT22;36257;46.052;12.540;2022-07-05T07:44:05;29.90;64.30
40932;DHT22;36257;46.052;12.540;2022-07-05T07:46:30;29.80;64.90
40932;DHT22;36257;46.052;12.540;2022-07-05T07:48:57;29.90;65.70
40932;DHT22;36257;46.052;12.540;2022-07-05T07:51:23;30.00;67.30
40932;DHT22;36257;46.052;12.540;2022-07-05T07:53:48;30.00;65.80
40932;DHT22;36257;46.052;12.540;2022-07-05T07:56:14;30.10;63.60
40932;DHT22;36257;46.052;12.540;2022-07-05T07:58:40;30.10;63.60
40932;DHT22;36257;46.052;12.540;2022-07-05T08:01:05;30.00;64.50
40932;DHT22;36257;46.052;12.540;2022-07-05T08:03:37;29.90;64.00
40932;DHT22;36257;46.052;12.540;2022-07-05T08:06:02;29.90;68.00
40932;DHT22;36257;46.052;12.540;2022-07-05T08:08:28;30.00;66.80
40932;DHT22;36257;46.052;12.540;2022-07-05T08:10:54;30.00;65.40
40932;DHT22;36257;46.052;12.540;2022-07-05T08:13:19;30.30;66.30
40932;DHT22;36257;46.052;12.540;2022-07-05T08:15:45;30.50;64.30
40932;DHT22;36257;46.052;12.540;2022-07-05T08:18:10;30.70;65.30
40932;DHT22;36257;46.052;12.540;2022-07-05T08:20:55;30.90;66.30
40932;DHT22;36257;46.052;12.540;2022-07-05T08:23:39;31.20;63.40
40932;DHT22;36257;46.052;12.540;2022-07-05T08:26:05;31.40;64.20
40932;DHT22;36257;46.052;12.540;2022-07-05T08:28:33;31.40;62.30
40932;DHT22;36257;46.052;12.540;2022-07-05T08:30:59;31.40;61.70
40932;DHT22;36257;46.052;12.540;2022-07-05T08:33:24;31.60;65.80
40932;DHT22;36257;46.052;12.540;2022-07-05T08:35:50;32.00;64.40
40932;DHT22;36257;46.052;12.540;2022-07-05T08:38:16;32.20;65.00
40932;DHT22;36257;46.052;12.540;2022-07-05T08:40:46;32.40;62.10
40932;DHT22;36257;46.052;12.540;2022-07-05T08:43:13;32.60;60.60
40932;DHT22;36257;46.052;12.540;2022-07-05T08:45:42;32.50;59.80
40932;DHT22;36257;46.052;12.540;2022-07-05T08:48:09;32.50;58.80
40932;DHT22;36257;46.052;12.540;2022-07-05T08:50:37;32.50;61.60
40932;DHT22;36257;46.052;12.540;2022-07-05T08:53:03;32.60;63.20
40932;DHT22;36257;46.052;12.540;2022-07-05T08:55:30;32.70;62.20
40932;DHT22;36257;46.052;12.540;2022-07-05T08:57:57;33.00;60.20
40932;DHT22;36257;46.052;12.540;2022-07-05T09:00:22;32.80;61.30
40932;DHT22;36257;46.052;12.540;2022-07-05T09:02:50;32.80;62.40
40932;DHT22;36257;46.052;12.540;2022-07-05T09:05:18;33.10;62.60
40932;DHT22;36257;46.052;12.540;2022-07-05T09:08:13;33.30;57.80
40932;DHT22;36257;46.052;12.540;2022-07-05T09:10:39;33.30;61.10
40932;DHT22;36257;46.052;12.540;2022-07-05T09:13:07;33.40;60.20
40932;DHT22;36257;46.052;12.540;2022-07-05T09:15:33;33.40;61.60
40932;DHT22;36257;46.052;12.540;2022-07-05T09:17:59;33.60;59.10
40932;DHT22;36257;46.052;12.540;2022-07-05T09:20:26;33.70;56.40
40932;DHT22;36257;46.052;12.540;2022-07-05T09:22:53;33.70;57.50
40932;DHT22;36257;46.052;12.540;2022-07-05T09:25:24;33.70;57.80
40932;DHT22;36257;46.052;12.540;2022-07-05T09:27:58;33.70;56.00
40932;DHT22;36257;46.052;12.540;2022-07-05T09:35:31;34.20;58.30
40932;DHT22;36257;46.052;12.540;2022-07-05T09:37:57;34.40;58.50
40932;DHT22;36257;46.052;12.540;2022-07-05T09:40:23;34.60;58.20
40932;DHT22;36257;46.052;12.540;2022-07-05T09:42:48;34.70;57.20
40932;DHT22;36257;46.052;12.540;2022-07-05T09:45:24;34.80;56.20
40932;DHT22;36257;46.052;12.540;2022-07-05T09:47:50;34.80;53.40
40932;DHT22;36257;46.052;12.540;2022-07-05T09:50:33;34.70;54.80
40932;DHT22;36257;46.052;12.540;2022-07-05T09:52:59;34.70;57.10
40932;DHT22;36257;46.052;12.540;2022-07-05T09:55:25;34.70;57.60
40932;DHT22;36257;46.052;12.540;2022-07-05T09:57:51;34.70;55.10
40932;DHT22;36257;46.052;12.540;2022-07-05T10:00:19;34.90;56.50
40932;DHT22;36257;46.052;12.540;2022-07-05T10:02:47;35.00;51.50
40932;DHT22;36257;46.052;12.540;2022-07-05T10:05:25;34.90;53.20
40932;DHT22;36257;46.052;12.540;2022-07-05T10:07:53;35.00;55.40
40932;DHT22;36257;46.052;12.540;2022-07-05T10:10:20;35.10;55.60
40932;DHT22;36257;46.052;12.540;2022-07-05T10:12:47;35.30;52.40
40932;DHT22;36257;46.052;12.540;2022-07-05T10:15:16;35.20;53.90
40932;DHT22;36257;46.052;12.540;2022-07-05T10:17:47;35.30;53.60
40932;DHT22;36257;46.052;12.540;2022-07-05T10:20:34;35.40;53.90
40932;DHT22;36257;46.052;12.540;2022-07-05T10:23:06;35.50;53.50
40932;DHT22;36257;46.052;12.540;2022-07-05T10:25:35;35.50;50.00
40932;DHT22;36257;46.052;12.540;2022-07-05T10:28:03;35.20;52.00
40932;DHT22;36257;46.052;12.540;2022-07-05T10:30:29;35.50;53.30
40932;DHT22;36257;46.052;12.540;2022-07-05T10:32:56;35.50;55.20
40932;DHT22;36257;46.052;12.540;2022-07-05T10:35:22;35.70;51.30
40932;DHT22;36257;46.052;12.540;2022-07-05T10:37:48;35.90;53.40
40932;DHT22;36257;46.052;12.540;2022-07-05T10:40:16;36.10;52.90
40932;DHT22;36257;46.052;12.540;2022-07-05T10:42:56;36.20;52.00
40932;DHT22;36257;46.052;12.540;2022-07-05T10:50:56;36.30;49.70
40932;DHT22;36257;46.052;12.540;2022-07-05T10:53:22;36.20;49.80
40932;DHT22;36257;46.052;12.540;2022-07-05T10:56:10;36.20;52.10
40932;DHT22;36257;46.052;12.540;2022-07-05T10:58:41;36.50;51.30
40932;DHT22;36257;46.052;12.540;2022-07-05T11:06:32;36.60;48.90
40932;DHT22;36257;46.052;12.540;2022-07-05T11:11:41;36.70;46.70
40932;DHT22;36257;46.052;12.540;2022-07-05T11:14:31;36.80;45.80
40932;DHT22;36257;46.052;12.540;2022-07-05T11:17:18;36.90;46.50
40932;DHT22;36257;46.052;12.540;2022-07-05T11:22:29;36.90;46.10
40932;DHT22;36257;46.052;12.540;2022-07-05T11:24:58;37.10;46.40
40932;DHT22;36257;46.052;12.540;2022-07-05T11:27:25;37.10;46.20
40932;DHT22;36257;46.052;12.540;2022-07-05T11:29:52;37.10;46.90
40932;DHT22;36257;46.052;12.540;2022-07-05T11:32:20;36.90;48.20
40932;DHT22;36257;46.052;12.540;2022-07-05T11:34:48;36.90;47.70
40932;DHT22;36257;46.052;12.540;2022-07-05T11:39:44;36.50;49.10
40932;DHT22;36257;46.052;12.540;2022-07-05T11:42:18;36.50;46.70
40932;DHT22;36257;46.052;12.540;2022-07-05T11:44:49;36.50;46.20
40932;DHT22;36257;46.052;12.540;2022-07-05T11:47:16;36.50;46.80
40932;DHT22;36257;46.052;12.540;2022-07-05T11:49:56;36.60;47.40
40932;DHT22;36257;46.052;12.540;2022-07-05T11:52:29;36.80;44.80
40932;DHT22;36257;46.052;12.540;2022-07-05T11:55:00;37.10;46.00
40932;DHT22;36257;46.052;12.540;2022-07-05T11:57:26;37.30;45.40
40932;DHT22;36257;46.052;12.540;2022-07-05T11:59:52;37.40;43.60
40932;DHT22;36257;46.052;12.540;2022-07-05T12:02:18;37.20;47.50
40932;DHT22;36257;46.052;12.540;2022-07-05T12:04:52;36.80;43.00
40932;DHT22;36257;46.052;12.540;2022-07-05T12:07:28;36.70;45.80
40932;DHT22;36257;46.052;12.540;2022-07-05T12:09:54;36.80;46.20
40932;DHT22;36257;46.052;12.540;2022-07-05T12:12:39;37.00;47.30
40932;DHT22;36257;46.052;12.540;2022-07-05T12:15:19;37.00;44.40
40932;DHT22;36257;46.052;12.540;2022-07-05T12:17:47;37.00;45.20
40932;DHT22;36257;46.052;12.540;2022-07-05T12:20:15;36.80;44.30
40932;DHT22;36257;46.052;12.540;2022-07-05T12:22:45;36.80;43.20
40932;DHT22;36257;46.052;12.540;2022-07-05T12:25:16;36.70;43.30
40932;DHT22;36257;46.052;12.540;2022-07-05T12:27:43;36.60;42.40
40932;DHT22;36257;46.052;12.540;2022-07-05T12:30:10;36.50;43.10
40932;DHT22;36257;46.052;12.540;2022-07-05T12:33:13;36.70;45.30
40932;DHT22;36257;46.052;12.540;2022-07-05T12:35:43;36.90;41.80
40932;DHT22;36257;46.052;12.540;2022-07-05T12:38:17;37.00;44.50
40932;DHT22;36257;46.052;12.540;2022-07-05T12:40:58;37.20;43.30
40932;DHT22;36257;46.052;12.540;2022-07-05T12:43:25;37.20;43.10
40932;DHT22;36257;46.052;12.540;2022-07-05T12:46:06;37.10;43.50
40932;DHT22;36257;46.052;12.540;2022-07-05T12:48:34;37.10;42.30
40932;DHT22;36257;46.052;12.540;2022-07-05T12:51:01;37.00;42.60
40932;DHT22;36257;46.052;12.540;2022-07-05T12:53:27;36.80;43.80
40932;DHT22;36257;46.052;12.540;2022-07-05T12:56:13;36.30;45.10
40932;DHT22;36257;46.052;12.540;2022-07-05T12:58:59;35.80;45.90
40932;DHT22;36257;46.052;12.540;2022-07-05T13:06:52;34.90;49.60
40932;DHT22;36257;46.052;12.540;2022-07-05T13:12:20;34.60;47.80
40932;DHT22;36257;46.052;12.540;2022-07-05T13:14:51;34.60;49.40
40932;DHT22;36257;46.052;12.540;2022-07-05T13:17:21;34.50;49.10
40932;DHT22;36257;46.052;12.540;2022-07-05T13:19:50;34.40;49.10
40932;DHT22;36257;46.052;12.540;2022-07-05T13:22:16;34.20;51.60
40932;DHT22;36257;46.052;12.540;2022-07-05T13:24:42;34.10;50.30
40932;DHT22;36257;46.052;12.540;2022-07-05T13:27:09;33.90;51.00
40932;DHT22;36257;46.052;12.540;2022-07-05T13:29:36;33.70;53.80
40932;DHT22;36257;46.052;12.540;2022-07-05T13:32:02;33.50;59.20
40932;DHT22;36257;46.052;12.540;2022-07-05T13:34:28;33.30;60.40
40932;DHT22;36257;46.052;12.540;2022-07-05T13:36:57;33.10;61.40
40932;DHT22;36257;46.052;12.540;2022-07-05T13:39:24;33.00;62.20
40932;DHT22;36257;46.052;12.540;2022-07-05T13:41:54;33.00;62.90
40932;DHT22;36257;46.052;12.540;2022-07-05T13:44:21;32.90;60.50
40932;DHT22;36257;46.052;12.540;2022-07-05T13:46:47;33.00;59.50
40932;DHT22;36257;46.052;12.540;2022-07-05T13:49:13;32.90;61.00
40932;DHT22;36257;46.052;12.540;2022-07-05T13:51:39;32.70;61.80
40932;DHT22;36257;46.052;12.540;2022-07-05T13:54:05;32.60;63.60
40932;DHT22;36257;46.052;12.540;2022-07-05T13:56:31;32.20;60.40
40932;DHT22;36257;46.052;12.540;2022-07-05T13:58:58;31.10;61.30
40932;DHT22;36257;46.052;12.540;2022-07-05T14:01:24;30.20;65.60
40932;DHT22;36257;46.052;12.540;2022-07-05T14:03:56;29.80;67.70
40932;DHT22;36257;46.052;12.540;2022-07-05T14:06:27;29.70;69.30
40932;DHT22;36257;46.052;12.540;2022-07-05T14:08:53;29.60;70.10
40932;DHT22;36257;46.052;12.540;2022-07-05T14:11:18;29.80;70.00
40932;DHT22;36257;46.052;12.540;2022-07-05T14:13:44;29.90;69.40
40932;DHT22;36257;46.052;12.540;2022-07-05T14:16:10;30.00;70.10
40932;DHT22;36257;46.052;12.540;2022-07-05T14:18:36;30.20;69.50
40932;DHT22;36257;46.052;12.540;2022-07-05T14:21:02;30.30;69.50
40932;DHT22;36257;46.052;12.540;2022-07-05T14:23:28;30.50;68.00
40932;DHT22;36257;46.052;12.540;2022-07-05T14:25:54;30.70;68.70
40932;DHT22;36257;46.052;12.540;2022-07-05T14:28:20;30.80;67.10
40932;DHT22;36257;46.052;12.540;2022-07-05T14:30:46;31.00;66.00
40932;DHT22;36257;46.052;12.540;2022-07-05T14:33:14;31.10;64.30
40932;DHT22;36257;46.052;12.540;2022-07-05T14:35:40;31.30;63.10
40932;DHT22;36257;46.052;12.540;2022-07-05T14:38:07;31.50;62.80
40932;DHT22;36257;46.052;12.540;2022-07-05T14:40:34;31.70;60.60
40932;DHT22;36257;46.052;12.540;2022-07-05T14:43:00;31.90;59.00
40932;DHT22;36257;46.052;12.540;2022-07-05T14:45:26;32.00;59.10
40932;DHT22;36257;46.052;12.540;2022-07-05T14:47:53;32.10;58.80
40932;DHT22;36257;46.052;12.540;2022-07-05T14:50:19;32.20;58.00
40932;DHT22;36257;46.052;12.540;2022-07-05T14:52:47;32.40;58.50
40932;DHT22;36257;46.052;12.540;2022-07-05T14:55:13;32.60;58.20
40932;DHT22;36257;46.052;12.540;2022-07-05T14:57:39;32.60;57.30
40932;DHT22;36257;46.052;12.540;2022-07-05T15:00:07;32.70;58.90
40932;DHT22;36257;46.052;12.540;2022-07-05T15:02:33;32.70;57.50
40932;DHT22;36257;46.052;12.540;2022-07-05T15:04:59;32.60;58.20
40932;DHT22;36257;46.052;12.540;2022-07-05T15:07:25;32.60;57.70
40932;DHT22;36257;46.052;12.540;2022-07-05T15:09:51;32.40;55.90
40932;DHT22;36257;46.052;12.540;2022-07-05T15:12:16;32.10;55.70
40932;DHT22;36257;46.052;12.540;2022-07-05T15:14:43;32.00;56.80
40932;DHT22;36257;46.052;12.540;2022-07-05T15:17:09;31.80;57.30
40932;DHT22;36257;46.052;12.540;2022-07-05T15:19:34;31.80;58.00
40932;DHT22;36257;46.052;12.540;2022-07-05T15:22:00;31.80;59.20
40932;DHT22;36257;46.052;12.540;2022-07-05T15:24:26;31.70;60.90
40932;DHT22;36257;46.052;12.540;2022-07-05T15:26:52;31.50;61.40
40932;DHT22;36257;46.052;12.540;2022-07-05T15:29:18;31.20;63.40
40932;DHT22;36257;46.052;12.540;2022-07-05T15:31:43;31.00;65.70
40932;DHT22;36257;46.052;12.540;2022-07-05T15:34:09;30.30;65.20
40932;DHT22;36257;46.052;12.540;2022-07-05T15:36:35;29.90;67.30
40932;DHT22;36257;46.052;12.540;2022-07-05T15:39:04;29.70;68.30
40932;DHT22;36257;46.052;12.540;2022-07-05T15:41:33;29.50;68.50
40932;DHT22;36257;46.052;12.540;2022-07-05T15:43:59;29.40;67.20
40932;DHT22;36257;46.052;12.540;2022-07-05T15:46:25;29.30;68.60
40932;DHT22;36257;46.052;12.540;2022-07-05T15:48:51;29.20;68.80
40932;DHT22;36257;46.052;12.540;2022-07-05T15:51:19;29.20;69.20
40932;DHT22;36257;46.052;12.540;2022-07-05T15:53:46;29.20;68.80